Hot Springs, Ingalls Field (KHSP)

NameIngalls Field
CityHot Springs
CountryUnited States
ICAOKHSP
IATA
Altitude1156 m
CoordinatesGoogle Map
Live Air TrafficLiveATC.net
METARKHSP 171955Z AUTO 29023G28KT 10SM CLR 12/05 A3013 RMK AO2 T01200048
2018-10-17 19:55:00 Wind: West (290°) 11.83 m/s - Visibility: 16093.4 m - Temperature: 12 °C - Dew point: 5 °C - Humidity: 62.5% - Pressure: 1020.32 hPa

Sorry, no flights used the airport in this database.